Time;durP1;ratioP1;P1;durP2;ratioP2;P2;SDS_P1;SDS_P2;PMS_P1;PMS_P2;Temp;Humidity;BMP_temperature;BMP_pressure;BME280_temperature;BME280_humidity;BME280_pressure;Samples;Min_cycle;Max_cycle;Signal;HPM_P1;HPM_P2
2021/03/25 00:00:24;;;;;;;29.35;24.65;;;;;21.30;100893.00;;;;2076744;28;20242;-46
2021/03/25 00:01:27;;;;;;;26.25;22.30;;;;;21.30;100898.00;;;;2075150;28;20225;-46
2021/03/25 00:02:27;;;;;;;27.23;22.48;;;;;21.30;100893.00;;;;2077094;28;20214;-46
2021/03/25 00:03:28;;;;;;;25.67;22.73;;;;;21.30;100897.00;;;;2068656;28;20211;-46
2021/03/25 00:04:28;;;;;;;25.53;22.40;;;;;21.30;100881.00;;;;2076651;28;20304;-46
2021/03/25 00:05:30;;;;;;;26.00;21.47;;;;;21.20;100899.00;;;;2076520;28;20212;-46
2021/03/25 00:06:31;;;;;;;25.88;22.48;;;;;21.30;100900.00;;;;2077083;28;20218;-45
2021/03/25 00:07:31;;;;;;;24.40;21.65;;;;;21.30;100893.00;;;;2077373;28;20205;-46
2021/03/25 00:08:32;;;;;;;25.20;22.17;;;;;21.30;100904.00;;;;2069135;28;20245;-46
2021/03/25 00:09:35;;;;;;;23.57;21.07;;;;;21.30;100899.00;;;;2068099;28;20215;-47
2021/03/25 00:10:36;;;;;;;27.08;21.75;;;;;21.20;100901.00;;;;2075542;28;20691;-47
2021/03/25 00:11:37;;;;;;;24.25;21.65;;;;;21.20;100894.00;;;;2077965;28;20269;-47
2021/03/25 00:12:37;;;;;;;27.00;22.70;;;;;21.20;100898.00;;;;2078532;28;20214;-46
2021/03/25 00:13:37;;;;;;;24.83;22.10;;;;;21.20;100897.00;;;;2078028;28;20202;-46
2021/03/25 00:14:38;;;;;;;24.20;21.60;;;;;21.20;100894.00;;;;2078451;28;20353;-46
2021/03/25 00:15:38;;;;;;;23.03;20.53;;;;;21.20;100889.00;;;;2075282;28;20297;-46
2021/03/25 00:16:38;;;;;;;24.20;20.50;;;;;21.20;100892.00;;;;2078059;28;20687;-46
2021/03/25 00:17:39;;;;;;;23.37;20.63;;;;;21.20;100896.00;;;;2077576;28;20214;-47
2021/03/25 00:18:39;;;;;;;23.80;21.07;;;;;21.20;100893.00;;;;2077178;28;20222;-46
2021/03/25 00:19:40;;;;;;;24.60;20.80;;;;;21.20;100889.00;;;;2074544;28;20219;-46
2021/03/25 00:20:40;;;;;;;20.83;18.63;;;;;21.20;100893.00;;;;2068650;28;20676;-46
2021/03/25 00:21:41;;;;;;;25.17;19.23;;;;;21.20;100896.00;;;;2070743;28;20250;-46
2021/03/25 00:22:42;;;;;;;22.53;20.10;;;;;21.20;100897.00;;;;2069407;28;20823;-47
2021/03/25 00:23:43;;;;;;;22.33;19.45;;;;;21.20;100894.00;;;;2068753;28;20254;-47
2021/03/25 00:24:43;;;;;;;21.47;19.17;;;;;21.20;100881.00;;;;2069292;28;20587;-46
2021/03/25 00:25:44;;;;;;;22.27;19.43;;;;;21.20;100889.00;;;;2072908;28;20268;-47
2021/03/25 00:26:44;;;;;;;23.10;20.03;;;;;21.20;100899.00;;;;2077532;28;20226;-46
2021/03/25 00:27:44;;;;;;;22.97;18.80;;;;;21.20;100904.00;;;;2077334;28;20230;-47
2021/03/25 00:28:45;;;;;;;23.10;20.20;;;;;21.20;100905.00;;;;2076807;28;20714;-47
2021/03/25 00:29:45;;;;;;;19.63;17.63;;;;;21.10;100894.00;;;;2075433;28;20758;-47
2021/03/25 00:30:46;;;;;;;22.00;18.70;;;;;21.20;100899.00;;;;2077653;28;20956;-46
2021/03/25 00:31:46;;;;;;;22.03;19.03;;;;;21.20;100899.00;;;;2077539;28;20305;-46
2021/03/25 00:32:47;;;;;;;22.07;19.77;;;;;21.20;100911.00;;;;2077290;28;20218;-46
2021/03/25 00:33:47;;;;;;;21.50;19.20;;;;;21.20;100890.00;;;;2077747;28;20230;-47
2021/03/25 00:34:48;;;;;;;21.27;18.90;;;;;21.10;100892.00;;;;2078191;28;20283;-46
2021/03/25 00:35:48;;;;;;;21.17;18.87;;;;;21.10;100884.00;;;;2077213;28;20332;-46
2021/03/25 00:36:48;;;;;;;22.80;18.80;;;;;21.10;100888.00;;;;2077687;28;20221;-44
2021/03/25 00:37:49;;;;;;;20.10;17.60;;;;;21.10;100881.00;;;;2077146;28;20218;-44
2021/03/25 00:38:49;;;;;;;20.27;17.83;;;;;21.10;100888.00;;;;2076794;28;20576;-48
2021/03/25 00:39:49;;;;;;;21.43;18.07;;;;;21.10;100883.00;;;;2076288;28;20226;-46
2021/03/25 00:40:50;;;;;;;19.07;16.90;;;;;21.10;100883.00;;;;2076841;28;20226;-46
2021/03/25 00:41:50;;;;;;;20.93;18.77;;;;;21.10;100873.00;;;;2067586;28;20230;-44
2021/03/25 00:42:51;;;;;;;18.50;16.50;;;;;21.10;100877.00;;;;2068927;28;20230;-45
2021/03/25 00:43:51;;;;;;;18.83;16.83;;;;;21.10;100882.00;;;;2069088;28;20707;-49
2021/03/25 00:44:52;;;;;;;20.97;17.33;;;;;21.10;100880.00;;;;2069506;28;20215;-48
2021/03/25 00:45:52;;;;;;;20.43;17.00;;;;;21.10;100885.00;;;;2068446;28;20230;-47
2021/03/25 00:46:52;;;;;;;19.53;17.47;;;;;21.10;100879.00;;;;2069247;28;20269;-45
2021/03/25 00:47:53;;;;;;;19.40;17.30;;;;;21.10;100885.00;;;;2069060;28;20304;-45
2021/03/25 00:48:53;;;;;;;18.30;16.40;;;;;21.10;100885.00;;;;2069109;28;20309;-47
2021/03/25 00:49:53;;;;;;;17.70;15.83;;;;;21.10;100883.00;;;;2071133;28;20206;-47
2021/03/25 00:50:55;;;;;;;18.40;16.40;;;;;21.10;100875.00;;;;2070600;28;20404;-47
2021/03/25 00:51:56;;;;;;;18.75;16.75;;;;;21.10;100877.00;;;;2070044;28;20583;-46
2021/03/25 00:52:56;;;;;;;20.03;16.70;;;;;21.10;100881.00;;;;2069188;28;20289;-47
2021/03/25 00:53:57;;;;;;;18.13;16.23;;;;;21.10;100876.00;;;;2068376;28;20760;-44
2021/03/25 00:54:57;;;;;;;18.13;16.23;;;;;21.10;100873.00;;;;2069107;28;20215;-43
2021/03/25 00:55:58;;;;;;;18.77;16.87;;;;;21.10;100874.00;;;;2063918;28;20266;-45
2021/03/25 00:56:58;;;;;;;18.43;16.50;;;;;21.10;100878.00;;;;2068586;28;20731;-48
2021/03/25 00:57:58;;;;;;;18.93;16.80;;;;;21.10;100871.00;;;;2069426;28;20239;-46
2021/03/25 00:58:59;;;;;;;18.60;16.60;;;;;21.10;100875.00;;;;2075992;28;20775;-45
2021/03/25 00:59:59;;;;;;;18.13;15.47;;;;;21.00;100872.00;;;;2076813;28;20267;-45
2021/03/25 01:01:00;;;;;;;17.93;15.47;;;;;21.10;100819.00;;;;2075181;28;20221;-46
2021/03/25 01:02:00;;;;;;;19.30;15.93;;;;;21.10;100870.00;;;;2077457;28;20221;-46
2021/03/25 01:03:00;;;;;;;19.10;17.00;;;;;21.10;100876.00;;;;2077914;28;20694;-46
2021/03/25 01:04:01;;;;;;;17.23;15.50;;;;;21.10;100871.00;;;;2077599;28;20214;-46
2021/03/25 01:05:02;;;;;;;17.00;15.27;;;;;21.00;100868.00;;;;2078091;28;20225;-47
2021/03/25 01:06:02;;;;;;;17.03;15.30;;;;;21.00;100866.00;;;;2073469;28;20206;-47
2021/03/25 01:07:03;;;;;;;21.00;16.77;;;;;21.00;100870.00;;;;2077959;28;20209;-46
2021/03/25 01:08:03;;;;;;;16.70;14.97;;;;;21.00;100866.00;;;;2072478;28;20214;-46
2021/03/25 01:09:27;;;;;;;17.03;15.30;;;;;21.00;100865.00;;;;2069082;28;20576;-46
2021/03/25 01:10:33;;;;;;;17.38;15.40;;;;;21.00;100862.00;;;;2074157;28;20713;-46
2021/03/25 01:11:33;;;;;;;16.63;14.80;;;;;21.00;100876.00;;;;2077961;28;20607;-47
2021/03/25 01:12:33;;;;;;;18.07;16.13;;;;;21.00;100867.00;;;;2077385;28;20214;-47
2021/03/25 01:13:39;;;;;;;16.53;14.73;;;;;21.00;100867.00;;;;2068977;28;20643;-47
2021/03/25 01:14:40;;;;;;;16.27;14.68;;;;;21.00;100865.00;;;;2069114;28;20229;-46
2021/03/25 01:15:40;;;;;;;16.30;14.60;;;;;21.00;100867.00;;;;2068731;28;20779;-46
2021/03/25 01:16:42;;;;;;;15.40;13.80;;;;;21.00;100862.00;;;;2069475;28;20523;-46
2021/03/25 01:17:56;;;;;;;15.55;13.95;;;;;21.00;100870.00;;;;2068684;28;20225;-47
2021/03/25 01:18:56;;;;;;;15.93;14.32;;;;;21.00;100853.00;;;;2075290;28;20228;-47
2021/03/25 01:19:57;;;;;;;16.90;15.20;;;;;21.00;100856.00;;;;2073017;28;20218;-49
2021/03/25 01:20:57;;;;;;;15.67;13.80;;;;;21.00;100856.00;;;;2069518;28;20211;-45
2021/03/25 01:21:58;;;;;;;15.60;14.00;;;;;21.00;100855.00;;;;2069158;28;20207;-44
2021/03/25 01:22:58;;;;;;;15.13;13.53;;;;;21.00;100852.00;;;;2068454;28;20499;-45
2021/03/25 01:23:59;;;;;;;16.50;14.77;;;;;21.00;100854.00;;;;2067942;28;20225;-47
2021/03/25 01:24:59;;;;;;;16.33;14.37;;;;;21.00;100849.00;;;;2068868;28;20466;-45
2021/03/25 01:26:00;;;;;;;16.90;13.87;;;;;21.00;100851.00;;;;2071432;28;20225;-44
2021/03/25 01:27:00;;;;;;;15.80;14.20;;;;;21.00;100855.00;;;;2077122;28;20218;-45
2021/03/25 01:28:02;;;;;;;16.33;14.13;;;;;21.00;100854.00;;;;2076827;28;20210;-48
2021/03/25 01:29:02;;;;;;;16.15;13.63;;;;;21.00;100852.00;;;;2077577;28;20761;-44
2021/03/25 01:30:04;;;;;;;16.00;14.30;;;;;21.00;100846.00;;;;2076485;28;20210;-49
2021/03/25 01:31:04;;;;;;;15.65;13.98;;;;;20.90;100849.00;;;;2075097;28;20218;-50
2021/03/25 01:32:05;;;;;;;15.77;14.17;;;;;21.00;100847.00;;;;2068882;28;20229;-46
2021/03/25 01:33:06;;;;;;;17.07;14.70;;;;;21.00;100838.00;;;;2068874;28;20219;-48
2021/03/25 01:34:08;;;;;;;15.48;13.95;;;;;20.90;100844.00;;;;2069162;28;20469;-45
2021/03/25 01:35:10;;;;;;;15.13;13.52;;;;;20.90;100838.00;;;;2069394;28;20219;-44
2021/03/25 01:36:10;;;;;;;14.52;13.05;;;;;20.90;100844.00;;;;2069191;28;20210;-44
2021/03/25 01:37:11;;;;;;;15.93;14.23;;;;;20.90;100834.00;;;;2075084;28;20669;-44
2021/03/25 01:38:13;;;;;;;15.73;13.47;;;;;20.90;100843.00;;;;2073945;28;20202;-49
2021/03/25 01:39:13;;;;;;;15.35;13.90;;;;;20.90;100839.00;;;;2068269;28;20416;-49
2021/03/25 01:40:21;;;;;;;15.67;14.03;;;;;20.90;100832.00;;;;2067326;28;20222;-49
2021/03/25 01:41:23;;;;;;;15.30;13.60;;;;;20.90;100834.00;;;;2062213;28;20587;-46
2021/03/25 01:42:28;;;;;;;14.82;13.30;;;;;20.90;100826.00;;;;2068667;28;20719;-50
2021/03/25 01:43:39;;;;;;;15.10;13.50;;;;;20.90;100832.00;;;;2068605;28;20222;-48
2021/03/25 01:44:40;;;;;;;14.45;12.95;;;;;20.90;100828.00;;;;2069374;28;20218;-45
2021/03/25 01:45:51;;;;;;;13.67;12.27;;;;;20.90;100829.00;;;;2068932;28;20222;-44
2021/03/25 01:46:52;;;;;;;17.15;14.23;;;;;20.90;100835.00;;;;2068439;28;20241;-46
2021/03/25 01:47:52;;;;;;;14.20;12.70;;;;;20.90;100829.00;;;;2060457;28;20318;-45
2021/03/25 01:48:59;;;;;;;15.80;13.80;;;;;20.90;100826.00;;;;2068307;28;20845;-45
2021/03/25 01:49:59;;;;;;;16.15;12.63;;;;;20.90;100823.00;;;;2070482;28;20695;-45
2021/03/25 01:51:02;;;;;;;14.43;12.90;;;;;20.90;100825.00;;;;2070587;28;20294;-48
2021/03/25 01:52:40;;;;;;;14.23;12.32;;;;;20.90;100826.00;;;;2065928;28;20710;-47
2021/03/25 01:54:17;;;;;;;13.55;12.15;;;;;20.90;100822.00;;;;2077822;28;20283;-46
2021/03/25 01:55:41;;;;;;;14.05;12.55;;;;;20.90;100816.00;;;;2079403;28;20271;-46
2021/03/25 01:57:18;;;;;;;13.98;11.88;;;;;20.90;100820.00;;;;2077670;28;20244;-46
2021/03/25 01:59:02;;;;;;;15.02;13.35;;;;;20.90;100816.00;;;;2078882;28;20221;-47
2021/03/25 02:00:12;;;;;;;13.32;11.93;;;;;20.80;100807.00;;;;2073244;28;20279;-46
2021/03/25 02:01:15;;;;;;;15.65;14.05;;;;;20.90;100809.00;;;;2068579;28;20242;-46
2021/03/25 02:02:46;;;;;;;13.38;12.00;;;;;20.90;100823.00;;;;2069476;28;20215;-47
2021/03/25 02:03:51;;;;;;;14.00;12.50;;;;;20.90;100804.00;;;;2072771;28;20225;-44
2021/03/25 02:05:02;;;;;;;13.20;11.90;;;;;20.90;100807.00;;;;2061781;28;20215;-46
2021/03/25 02:06:23;;;;;;;13.70;12.30;;;;;20.80;100810.00;;;;2069002;28;20211;-46
2021/03/25 02:07:42;;;;;;;15.48;13.85;;;;;20.80;100804.00;;;;2071257;28;20225;-47
2021/03/25 02:09:20;;;;;;;13.75;12.30;;;;;20.80;100803.00;;;;2070502;28;20218;-46
2021/03/25 02:10:43;;;;;;;12.77;11.10;;;;;20.80;100802.00;;;;2075187;28;20293;-46
2021/03/25 02:11:58;;;;;;;14.45;12.85;;;;;20.80;100805.00;;;;2085428;28;20222;-46
2021/03/25 02:13:37;;;;;;;13.57;12.18;;;;;20.80;100804.00;;;;2082464;28;20275;-46
2021/03/25 02:15:02;;;;;;;14.40;12.88;;;;;20.80;100812.00;;;;2077507;28;20217;-46
2021/03/25 02:16:15;;;;;;;14.20;12.30;;;;;20.60;100806.00;;;;2077617;28;20308;-46
2021/03/25 02:17:34;;;;;;;12.10;10.88;;;;;20.80;100805.00;;;;2065290;28;20225;-46
2021/03/25 02:19:11;;;;;;;13.35;11.77;;;;;20.80;100809.00;;;;2073069;28;20248;-46
2021/03/25 02:20:24;;;;;;;12.93;11.52;;;;;20.80;100804.00;;;;2069944;28;20696;-46
2021/03/25 02:21:39;;;;;;;12.02;10.93;;;;;20.80;100807.00;;;;2069725;28;20246;-44
2021/03/25 02:22:54;;;;;;;13.00;11.55;;;;;20.80;100802.00;;;;2071185;28;20245;-43
2021/03/25 02:24:41;;;;;;;13.50;11.80;;;;;20.80;100807.00;;;;2076326;28;20214;-44
2021/03/25 02:26:01;;;;;;;13.77;11.70;;;;;20.80;100805.00;;;;2076108;28;20263;-43
2021/03/25 02:27:39;;;;;;;13.32;11.70;;;;;20.80;100799.00;;;;2077689;28;20214;-45
2021/03/25 02:29:03;;;;;;;12.15;10.88;;;;;20.70;100795.00;;;;2078481;28;20237;-45
2021/03/25 02:30:07;;;;;;;12.98;11.57;;;;;20.70;100801.00;;;;2076512;28;20222;-44
2021/03/25 02:31:24;;;;;;;12.60;11.30;;;;;20.80;100807.00;;;;2077956;28;20256;-45
2021/03/25 02:32:26;;;;;;;12.52;11.23;;;;;20.80;100793.00;;;;2077595;28;20214;-44
2021/03/25 02:33:26;;;;;;;14.45;12.38;;;;;20.80;100795.00;;;;2069791;28;20223;-44
2021/03/25 02:34:30;;;;;;;12.87;11.63;;;;;20.80;100795.00;;;;2069713;28;20270;-45
2021/03/25 02:35:35;;;;;;;12.40;11.10;;;;;20.70;100795.00;;;;2053459;28;20226;-45
2021/03/25 02:36:56;;;;;;;11.98;10.80;;;;;20.70;100763.00;;;;2052419;28;20215;-44
2021/03/25 02:38:10;;;;;;;12.63;11.35;;;;;20.70;100794.00;;;;2064196;28;20380;-44
2021/03/25 02:39:13;;;;;;;11.63;10.52;;;;;20.70;100795.00;;;;2060160;28;20210;-44
2021/03/25 02:40:22;;;;;;;11.60;10.40;;;;;20.70;100793.00;;;;2061266;28;20285;-44
2021/03/25 02:41:24;;;;;;;12.38;11.07;;;;;20.70;100797.00;;;;2061883;28;20222;-45
2021/03/25 02:42:30;;;;;;;12.63;11.40;;;;;20.70;100794.00;;;;2070243;28;20334;-43
2021/03/25 02:44:09;;;;;;;11.75;10.55;;;;;20.70;100789.00;;;;2069224;28;20214;-45
2021/03/25 02:45:18;;;;;;;15.93;10.85;;;;;20.70;100786.00;;;;2075080;28;20237;-44
2021/03/25 02:46:29;;;;;;;12.55;11.20;;;;;20.70;100794.00;;;;2069092;28;20242;-44
2021/03/25 02:47:29;;;;;;;12.02;10.80;;;;;20.70;100795.00;;;;2062815;28;20211;-44
2021/03/25 02:48:30;;;;;;;11.37;10.20;;;;;20.70;100792.00;;;;2061134;28;20220;-44
2021/03/25 02:49:31;;;;;;;11.70;10.60;;;;;20.70;100821.00;;;;2069439;28;20292;-44
2021/03/25 02:50:39;;;;;;;11.40;10.27;;;;;20.70;100791.00;;;;2060430;28;20223;-45
2021/03/25 02:51:44;;;;;;;12.23;10.75;;;;;20.70;100787.00;;;;2054623;28;20216;-44
2021/03/25 02:52:46;;;;;;;12.00;10.80;;;;;20.70;100785.00;;;;2059369;28;21038;-44
2021/03/25 02:53:47;;;;;;;12.25;11.05;;;;;20.70;100780.00;;;;2069970;28;20223;-44
2021/03/25 02:54:47;;;;;;;10.80;9.70;;;;;20.70;100791.00;;;;2070097;28;20321;-44
2021/03/25 02:55:47;;;;;;;11.43;10.33;;;;;20.70;100794.00;;;;2069948;28;20228;-44
2021/03/25 02:56:52;;;;;;;11.77;10.67;;;;;20.70;100795.00;;;;2074420;28;20576;-45
2021/03/25 02:58:10;;;;;;;11.85;10.65;;;;;20.70;100799.00;;;;2066270;28;20691;-45
2021/03/25 02:59:14;;;;;;;11.18;10.07;;;;;20.70;100798.00;;;;2061676;28;20234;-44
2021/03/25 03:00:18;;;;;;;12.43;11.05;;;;;20.70;100792.00;;;;2062180;28;20220;-45
2021/03/25 03:01:18;;;;;;;12.25;10.80;;;;;20.70;100797.00;;;;2071431;28;20207;-43
2021/03/25 03:02:30;;;;;;;12.00;10.90;;;;;20.70;100792.00;;;;2070768;28;20211;-44
2021/03/25 03:03:52;;;;;;;11.75;10.55;;;;;20.70;100799.00;;;;2071546;28;20211;-44
2021/03/25 03:04:53;;;;;;;11.02;9.85;;;;;20.70;100797.00;;;;2058823;28;20210;-44
2021/03/25 03:05:53;;;;;;;11.55;10.38;;;;;20.70;100791.00;;;;2068381;28;20249;-43
2021/03/25 03:07:00;;;;;;;11.73;10.40;;;;;20.60;100797.00;;;;2071632;28;20218;-44
2021/03/25 03:08:21;;;;;;;11.40;10.20;;;;;20.60;100791.00;;;;2065462;28;20374;-44
2021/03/25 03:09:23;;;;;;;12.73;10.45;;;;;20.70;100796.00;;;;2063768;28;20261;-43
2021/03/25 03:10:27;;;;;;;11.23;10.02;;;;;20.70;100791.00;;;;2069193;28;20321;-45
2021/03/25 03:11:29;;;;;;;11.80;10.55;;;;;20.60;100788.00;;;;2069948;28;20691;-45
2021/03/25 03:12:34;;;;;;;11.75;10.52;;;;;20.70;100785.00;;;;2061901;28;20220;-43
2021/03/25 03:13:38;;;;;;;11.88;10.65;;;;;20.60;100785.00;;;;2069826;28;20222;-43
2021/03/25 03:14:44;;;;;;;11.57;10.35;;;;;20.60;100786.00;;;;2054512;28;20208;-42
2021/03/25 03:15:46;;;;;;;12.20;11.00;;;;;20.70;100791.00;;;;2063397;28;20231;-46
2021/03/25 03:17:00;;;;;;;12.10;10.90;;;;;20.60;100783.00;;;;2070357;28;20669;-46
2021/03/25 03:18:22;;;;;;;12.30;11.07;;;;;20.60;100786.00;;;;2069857;28;20222;-43
2021/03/25 03:19:26;;;;;;;11.02;9.65;;;;;20.60;100784.00;;;;2067013;28;20358;-46
2021/03/25 03:20:28;;;;;;;11.57;10.38;;;;;20.60;100785.00;;;;2069100;28;20230;-43
2021/03/25 03:21:29;;;;;;;11.50;10.40;;;;;20.60;100788.00;;;;2069653;28;20269;-43
2021/03/25 03:22:29;;;;;;;12.02;10.90;;;;;20.60;100778.00;;;;2077743;28;20214;-44
2021/03/25 03:23:30;;;;;;;13.77;12.20;;;;;20.60;100780.00;;;;2078531;28;20315;-44
2021/03/25 03:24:30;;;;;;;11.77;10.30;;;;;20.60;100773.00;;;;2077974;28;20280;-44
2021/03/25 03:25:31;;;;;;;11.10;10.00;;;;;20.60;100778.00;;;;2078129;28;20214;-45
2021/03/25 03:26:34;;;;;;;12.83;11.47;;;;;20.60;100777.00;;;;2069400;28;20217;-44
2021/03/25 03:27:43;;;;;;;11.65;10.50;;;;;20.60;100789.00;;;;2062619;28;20223;-45
2021/03/25 03:28:46;;;;;;;11.50;10.30;;;;;20.60;100786.00;;;;2071167;28;20561;-47
2021/03/25 03:29:47;;;;;;;11.82;10.50;;;;;20.60;100786.00;;;;2068843;28;20573;-45
2021/03/25 03:30:52;;;;;;;10.97;9.90;;;;;20.60;100794.00;;;;2053894;28;20280;-46
2021/03/25 03:31:55;;;;;;;12.88;11.23;;;;;20.60;100789.00;;;;2062867;28;20295;-44
2021/03/25 03:33:21;;;;;;;12.05;10.90;;;;;20.60;100789.00;;;;2061890;28;20219;-46
2021/03/25 03:34:29;;;;;;;10.82;9.77;;;;;20.60;100791.00;;;;2058783;28;20242;-46
2021/03/25 03:35:36;;;;;;;12.45;11.07;;;;;20.60;100785.00;;;;2064003;28;20223;-46
2021/03/25 03:36:37;;;;;;;11.02;9.77;;;;;20.60;100787.00;;;;2048870;28;20264;-45
2021/03/25 03:37:40;;;;;;;10.80;9.70;;;;;20.60;100798.00;;;;2069964;28;20214;-43
2021/03/25 03:38:41;;;;;;;12.27;10.10;;;;;20.60;100790.00;;;;2052690;28;20285;-42
2021/03/25 03:39:41;;;;;;;12.18;10.93;;;;;20.60;100795.00;;;;2060499;28;20218;-44
2021/03/25 03:40:43;;;;;;;12.00;10.37;;;;;20.60;100797.00;;;;2069528;28;20210;-43
2021/03/25 03:42:13;;;;;;;10.90;9.90;;;;;20.60;100790.00;;;;2061894;28;20223;-47
2021/03/25 03:43:14;;;;;;;11.43;10.00;;;;;20.60;100793.00;;;;2069172;28;20603;-45
2021/03/25 03:44:18;;;;;;;12.50;11.30;;;;;20.60;100783.00;;;;2077690;28;20222;-46
2021/03/25 03:45:19;;;;;;;12.68;10.52;;;;;20.60;100787.00;;;;2069468;28;20449;-43
2021/03/25 03:46:21;;;;;;;11.20;10.10;;;;;20.60;100782.00;;;;2069531;28;20291;-42
2021/03/25 03:47:22;;;;;;;11.50;10.30;;;;;20.50;100788.00;;;;2069644;28;20211;-43
2021/03/25 03:48:41;;;;;;;12.00;10.77;;;;;20.60;100790.00;;;;2069804;28;20253;-44
2021/03/25 03:49:54;;;;;;;10.75;9.65;;;;;20.60;100794.00;;;;2067782;28;20269;-46
2021/03/25 03:50:57;;;;;;;11.95;10.75;;;;;20.60;100796.00;;;;2070502;28;20363;-45
2021/03/25 03:52:05;;;;;;;11.82;10.63;;;;;20.50;100792.00;;;;2069212;28;20800;-43
2021/03/25 03:53:05;;;;;;;11.55;10.35;;;;;20.60;100797.00;;;;2077784;28;20224;-45
2021/03/25 03:54:06;;;;;;;13.23;10.70;;;;;20.60;100791.00;;;;2069663;28;20221;-44
2021/03/25 03:55:10;;;;;;;12.60;11.30;;;;;20.60;100794.00;;;;2069452;28;20245;-46
2021/03/25 03:56:17;;;;;;;12.05;10.85;;;;;20.60;100792.00;;;;2061682;28;20207;-46
2021/03/25 03:57:20;;;;;;;11.38;10.18;;;;;20.60;100785.00;;;;2063176;28;20320;-45
2021/03/25 03:58:30;;;;;;;11.93;10.65;;;;;20.60;100799.00;;;;2077829;28;20225;-45
2021/03/25 03:59:49;;;;;;;12.93;11.63;;;;;20.50;100797.00;;;;2061018;28;20310;-44
2021/03/25 04:01:18;;;;;;;11.75;10.20;;;;;20.50;100802.00;;;;2059581;28;20242;-44
2021/03/25 04:02:40;;;;;;;13.32;11.00;;;;;20.50;100806.00;;;;2076769;28;20202;-44
2021/03/25 04:03:46;;;;;;;11.43;9.90;;;;;20.50;100800.00;;;;2072456;28;20292;-44
2021/03/25 04:04:50;;;;;;;12.38;11.15;;;;;20.50;100794.00;;;;2066006;28;20211;-45
2021/03/25 04:05:53;;;;;;;12.40;11.10;;;;;20.50;100806.00;;;;2070592;28;20198;-43
2021/03/25 04:06:57;;;;;;;12.45;10.57;;;;;20.50;100802.00;;;;2067246;28;20214;-45
2021/03/25 04:08:14;;;;;;;11.20;10.00;;;;;20.50;100797.00;;;;2064254;28;20222;-44
2021/03/25 04:09:21;;;;;;;10.68;9.57;;;;;20.50;100795.00;;;;2063166;28;20634;-46
2021/03/25 04:10:26;;;;;;;12.25;10.95;;;;;20.50;100813.00;;;;2066398;28;20751;-45
2021/03/25 04:11:47;;;;;;;12.80;10.55;;;;;20.50;100803.00;;;;2061373;28;20226;-45
2021/03/25 04:12:51;;;;;;;11.32;9.85;;;;;20.50;100798.00;;;;2075040;28;20332;-46
2021/03/25 04:14:16;;;;;;;11.68;10.45;;;;;20.50;100800.00;;;;2069289;28;20215;-43
2021/03/25 04:15:20;;;;;;;11.63;10.52;;;;;20.50;100800.00;;;;2068052;28;20298;-45
2021/03/25 04:16:22;;;;;;;11.82;10.48;;;;;20.50;100797.00;;;;2069384;28;20221;-44
2021/03/25 04:17:31;;;;;;;11.73;10.45;;;;;20.50;100800.00;;;;2077505;28;20347;-44
2021/03/25 04:18:39;;;;;;;12.50;11.20;;;;;20.50;100807.00;;;;2069360;28;20211;-45
2021/03/25 04:19:41;;;;;;;11.65;10.52;;;;;20.50;100806.00;;;;2061778;28;20242;-43
2021/03/25 04:20:47;;;;;;;12.02;10.82;;;;;20.50;100805.00;;;;2061480;28;20705;-43
2021/03/25 04:22:02;;;;;;;12.93;11.55;;;;;20.50;100804.00;;;;2057998;28;20218;-42
2021/03/25 04:23:05;;;;;;;11.95;10.60;;;;;20.50;100816.00;;;;2067584;28;20218;-43
2021/03/25 04:24:17;;;;;;;12.68;11.38;;;;;20.50;100814.00;;;;2053285;28;20306;-43
2021/03/25 04:25:23;;;;;;;12.80;10.90;;;;;20.50;100815.00;;;;2045346;28;20741;-43
2021/03/25 04:26:35;;;;;;;11.27;10.18;;;;;20.50;100812.00;;;;2054431;28;20366;-48
2021/03/25 04:27:44;;;;;;;11.85;10.65;;;;;20.50;100814.00;;;;2070343;28;20662;-44
2021/03/25 04:29:05;;;;;;;11.77;10.30;;;;;20.50;100809.00;;;;2062668;28;20223;-46
2021/03/25 04:30:09;;;;;;;11.18;9.95;;;;;20.50;100804.00;;;;2065119;28;20231;-43
2021/03/25 04:31:09;;;;;;;11.98;10.70;;;;;20.50;100797.00;;;;2061411;28;20215;-43
2021/03/25 04:32:10;;;;;;;12.03;10.80;;;;;20.50;100799.00;;;;2061115;28;20285;-42
2021/03/25 04:33:14;;;;;;;12.40;11.00;;;;;20.50;100810.00;;;;2060652;28;20285;-45
2021/03/25 04:34:15;;;;;;;11.45;10.30;;;;;20.50;100809.00;;;;2069058;28;20218;-44
2021/03/25 04:35:16;;;;;;;12.40;11.10;;;;;20.30;100812.00;;;;2070597;28;20603;-44
2021/03/25 04:36:18;;;;;;;11.70;10.50;;;;;20.50;100803.00;;;;2067353;28;20219;-45
2021/03/25 04:37:19;;;;;;;12.55;11.25;;;;;20.50;100812.00;;;;2061685;28;20384;-45
2021/03/25 04:38:21;;;;;;;11.70;10.50;;;;;20.40;100807.00;;;;2069180;28;20603;-44
2021/03/25 04:39:21;;;;;;;13.13;11.23;;;;;20.40;100811.00;;;;2077314;28;20206;-45
2021/03/25 04:40:30;;;;;;;12.67;10.93;;;;;20.40;100803.00;;;;2060108;28;20790;-44
2021/03/25 04:41:30;;;;;;;11.98;10.77;;;;;20.40;100792.00;;;;2069967;28;20738;-44
2021/03/25 04:42:30;;;;;;;11.03;9.43;;;;;20.40;100813.00;;;;2068812;28;20297;-44
2021/03/25 04:43:31;;;;;;;12.77;11.47;;;;;20.40;100806.00;;;;2069145;28;20214;-44
2021/03/25 04:44:32;;;;;;;12.20;10.90;;;;;20.40;100811.00;;;;2078016;28;20618;-45
2021/03/25 04:45:44;;;;;;;11.95;10.68;;;;;20.40;100809.00;;;;2076972;28;20268;-46
2021/03/25 04:46:53;;;;;;;12.05;10.77;;;;;20.40;100806.00;;;;2070510;28;20388;-47
2021/03/25 04:47:57;;;;;;;12.10;10.80;;;;;20.40;100810.00;;;;2077310;28;20222;-43
2021/03/25 04:48:57;;;;;;;11.40;10.20;;;;;20.40;100809.00;;;;2069300;28;20621;-43
2021/03/25 04:50:09;;;;;;;12.23;10.93;;;;;20.40;100811.00;;;;2060352;28;20216;-43
2021/03/25 04:51:17;;;;;;;12.05;10.75;;;;;20.40;100810.00;;;;2069649;28;20218;-43
2021/03/25 04:52:25;;;;;;;12.35;11.05;;;;;20.40;100807.00;;;;2068871;28;20365;-48
2021/03/25 04:53:31;;;;;;;12.30;11.00;;;;;20.40;100807.00;;;;2069241;28;20766;-45
2021/03/25 04:54:33;;;;;;;11.98;10.70;;;;;20.40;100814.00;;;;2069522;28;20222;-45
2021/03/25 04:55:35;;;;;;;11.77;10.57;;;;;20.40;100814.00;;;;2069991;28;20207;-45
2021/03/25 04:56:35;;;;;;;11.57;10.40;;;;;20.40;100805.00;;;;2069265;28;20218;-46
2021/03/25 04:57:37;;;;;;;11.90;10.70;;;;;20.40;100807.00;;;;2061202;28;20211;-44
2021/03/25 04:58:55;;;;;;;13.20;10.50;;;;;20.40;100807.00;;;;2061053;28;20206;-43
2021/03/25 04:59:56;;;;;;;13.02;11.63;;;;;20.40;100819.00;;;;2052191;28;20231;-45
2021/03/25 05:01:06;;;;;;;11.75;10.60;;;;;20.40;100812.00;;;;2062013;28;20717;-43
2021/03/25 05:02:07;;;;;;;11.98;10.73;;;;;20.40;100813.00;;;;2076851;28;20230;-44
2021/03/25 05:03:10;;;;;;;13.60;11.23;;;;;20.40;100808.00;;;;2077147;28;20214;-45
2021/03/25 05:04:10;;;;;;;13.00;10.43;;;;;20.40;100807.00;;;;2068077;28;20234;-46
2021/03/25 05:05:15;;;;;;;13.23;11.83;;;;;20.40;100803.00;;;;2061687;28;20246;-46
2021/03/25 05:06:31;;;;;;;11.45;10.35;;;;;20.40;100797.00;;;;2060651;28;20270;-44
2021/03/25 05:07:36;;;;;;;11.60;10.40;;;;;20.40;100796.00;;;;2070246;28;20723;-45
2021/03/25 05:08:36;;;;;;;15.20;11.13;;;;;20.40;100798.00;;;;2069361;28;20587;-45
2021/03/25 05:09:36;;;;;;;11.13;9.93;;;;;20.40;100790.00;;;;2059803;28;20214;-45
2021/03/25 05:10:44;;;;;;;11.27;10.17;;;;;20.40;100800.00;;;;2069194;28;20210;-46
2021/03/25 05:11:45;;;;;;;11.93;10.45;;;;;20.40;100801.00;;;;2062267;28;20666;-44
2021/03/25 05:12:45;;;;;;;12.33;10.33;;;;;20.40;100802.00;;;;2075805;28;20222;-45
2021/03/25 05:13:46;;;;;;;10.90;9.80;;;;;20.40;100803.00;;;;2077980;28;20637;-44
2021/03/25 05:14:47;;;;;;;12.13;10.30;;;;;20.40;100797.00;;;;2077791;28;20221;-45
2021/03/25 05:15:47;;;;;;;11.30;10.20;;;;;20.40;100800.00;;;;2077231;28;20683;-45
2021/03/25 05:16:53;;;;;;;11.40;10.23;;;;;20.40;100802.00;;;;2077378;28;20226;-45
2021/03/25 05:17:56;;;;;;;12.80;9.77;;;;;20.40;100799.00;;;;2077782;28;20225;-44
2021/03/25 05:19:17;;;;;;;11.88;10.68;;;;;20.40;100799.00;;;;2077029;28;20218;-43